createdAt,value
2019-05-11T00:00:11.340Z,17.77
2019-05-11T00:02:40.811Z,19.93
2019-05-11T00:05:10.444Z,18.67
2019-05-11T00:07:39.900Z,18.70
2019-05-11T00:10:09.368Z,19.37
2019-05-11T00:12:38.850Z,18.13
2019-05-11T00:15:08.380Z,18.17
2019-05-11T00:17:37.824Z,18.37
2019-05-11T00:20:07.790Z,18.47
2019-05-11T00:22:37.407Z,19.23
2019-05-11T00:25:07.085Z,19.40
2019-05-11T00:27:36.550Z,20.10
2019-05-11T00:30:06.358Z,20.87
2019-05-11T00:32:35.887Z,20.67
2019-05-11T00:35:05.539Z,20.20
2019-05-11T00:37:34.987Z,20.77
2019-05-11T00:40:13.760Z,20.13
2019-05-11T00:42:36.575Z,19.87
2019-05-11T00:45:07.140Z,20.00
2019-05-11T00:47:36.618Z,20.13
2019-05-11T00:50:39.129Z,20.20
2019-05-11T00:53:02.296Z,21.00
2019-05-11T00:55:31.731Z,20.63
2019-05-11T00:58:01.274Z,20.43
2019-05-11T01:00:30.682Z,21.10
2019-05-11T01:03:00.116Z,20.93
2019-05-11T01:05:29.605Z,22.53
2019-05-11T01:07:59.089Z,22.13
2019-05-11T01:10:41.034Z,23.30
2019-05-11T01:12:59.635Z,23.23
2019-05-11T01:15:29.103Z,24.27
2019-05-11T01:18:00.405Z,23.63
2019-05-11T01:20:29.834Z,24.83
2019-05-11T01:22:59.262Z,24.27
2019-05-11T01:25:29.005Z,23.90
2019-05-11T01:28:22.853Z,24.50
2019-05-11T01:30:53.031Z,24.50
2019-05-11T01:33:22.531Z,25.93
2019-05-11T01:35:51.970Z,24.70
2019-05-11T01:38:21.477Z,25.77
2019-05-11T01:43:46.715Z,25.67
2019-05-11T01:46:16.202Z,25.30
2019-05-11T01:48:45.646Z,25.20
2019-05-11T01:51:15.136Z,25.20
2019-05-11T01:53:47.933Z,24.17
2019-05-11T01:56:15.963Z,24.27
2019-05-11T01:58:45.409Z,23.70
2019-05-11T02:01:14.895Z,22.93
2019-05-11T02:03:44.787Z,23.87
2019-05-11T02:06:14.242Z,22.80
2019-05-11T02:08:43.807Z,22.83
2019-05-11T02:11:15.945Z,22.10
2019-05-11T02:13:44.745Z,21.70
2019-05-11T02:16:14.229Z,21.57
2019-05-11T02:18:44.103Z,19.40
2019-05-11T02:21:13.534Z,19.80
2019-05-11T02:23:42.956Z,19.43
2019-05-11T02:26:12.444Z,19.17
2019-05-11T02:28:41.956Z,18.97
2019-05-11T02:31:11.440Z,19.33
2019-05-11T02:33:40.940Z,19.07
2019-05-11T02:36:10.390Z,18.67
2019-05-11T02:38:39.830Z,18.77
2019-05-11T02:41:09.276Z,17.83
2019-05-11T02:43:38.721Z,18.23
2019-05-11T02:46:08.223Z,19.73
2019-05-11T02:48:37.673Z,17.40
2019-05-11T02:51:07.555Z,16.33
2019-05-11T02:53:37.474Z,17.53
2019-05-11T02:56:06.934Z,16.70
2019-05-11T02:58:36.381Z,16.00
2019-05-11T03:01:05.821Z,16.47
2019-05-11T03:03:35.310Z,17.23
2019-05-11T03:06:29.404Z,16.13
2019-05-11T03:08:58.832Z,15.43
2019-05-11T03:11:28.295Z,16.07
2019-05-11T03:13:57.904Z,15.07
2019-05-11T03:16:27.347Z,15.27
2019-05-11T03:18:56.785Z,15.10
2019-05-11T03:21:26.242Z,15.67
2019-05-11T03:24:00.084Z,15.33
2019-05-11T03:26:29.525Z,15.87
2019-05-11T03:28:59.049Z,15.50
2019-05-11T03:31:28.513Z,14.17
2019-05-11T03:34:00.842Z,14.57
2019-05-11T03:36:30.260Z,15.50
2019-05-11T03:38:59.689Z,14.70
2019-05-11T03:41:29.117Z,14.30
2019-05-11T03:43:58.636Z,14.47
2019-05-11T03:46:47.401Z,14.90
2019-05-11T03:49:16.895Z,14.20
2019-05-11T03:51:46.389Z,14.20
2019-05-11T03:54:15.908Z,13.87
2019-05-11T03:56:45.422Z,13.77
2019-05-11T03:59:15.011Z,12.30
2019-05-11T04:01:46.822Z,12.87
2019-05-11T04:04:16.839Z,13.30
2019-05-11T04:06:46.400Z,12.50
2019-05-11T04:09:15.829Z,12.90
2019-05-11T04:11:45.186Z,13.30
2019-05-11T04:14:15.770Z,12.40
2019-05-11T04:16:45.126Z,12.30
2019-05-11T04:19:14.580Z,12.10
2019-05-11T04:21:44.345Z,11.93
2019-05-11T04:24:13.855Z,12.60
2019-05-11T04:26:43.281Z,12.53
2019-05-11T04:29:12.771Z,11.13
2019-05-11T04:31:42.165Z,11.63
2019-05-11T04:34:11.617Z,12.27
2019-05-11T04:36:41.062Z,12.50
2019-05-11T04:39:10.539Z,11.63
2019-05-11T04:41:40.106Z,12.23
2019-05-11T04:44:09.567Z,11.80
2019-05-11T04:46:39.068Z,12.57
2019-05-11T04:49:08.510Z,11.70
2019-05-11T04:51:37.943Z,11.93
2019-05-11T04:54:07.347Z,11.70
2019-05-11T04:56:55.916Z,12.70
2019-05-11T04:59:25.351Z,12.60
2019-05-11T05:01:54.866Z,12.60
2019-05-11T05:04:24.786Z,12.97
2019-05-11T05:06:59.925Z,13.07
2019-05-11T05:09:25.429Z,11.47
2019-05-11T05:11:54.878Z,11.80
2019-05-11T05:14:24.341Z,11.70
2019-05-11T05:16:53.818Z,11.60
2019-05-11T05:19:23.322Z,12.43
2019-05-11T05:21:52.787Z,11.50
2019-05-11T05:24:22.258Z,12.30
2019-05-11T05:26:51.748Z,12.33
2019-05-11T05:29:21.236Z,11.73
2019-05-11T05:31:50.715Z,11.23
2019-05-11T05:34:20.135Z,12.20
2019-05-11T05:36:49.614Z,11.47
2019-05-11T05:39:19.016Z,12.17
2019-05-11T05:41:56.698Z,12.53
2019-05-11T05:44:19.483Z,11.50
2019-05-11T05:46:48.925Z,11.07
2019-05-11T05:49:18.388Z,11.50
2019-05-11T05:51:48.217Z,11.30
2019-05-11T05:54:17.670Z,11.10
2019-05-11T05:56:47.105Z,10.50
2019-05-11T05:59:16.627Z,11.23
2019-05-11T06:01:46.011Z,10.50
2019-05-11T06:04:15.499Z,10.97
2019-05-11T06:06:45.005Z,10.97
2019-05-11T06:09:14.437Z,10.53
2019-05-11T06:11:44.012Z,11.47
2019-05-11T06:14:15.486Z,11.47
2019-05-11T06:16:44.951Z,10.53
2019-05-11T06:19:14.408Z,10.77
2019-05-11T06:21:43.942Z,11.33
2019-05-11T06:24:15.632Z,10.83
2019-05-11T06:26:45.035Z,9.87
2019-05-11T06:29:14.484Z,10.33
2019-05-11T06:31:43.963Z,11.33
2019-05-11T06:34:13.540Z,10.53
2019-05-11T06:36:43.028Z,10.47
2019-05-11T06:39:12.460Z,10.77
2019-05-11T06:41:41.936Z,10.80
2019-05-11T06:57:32.755Z,9.73
2019-05-11T07:00:03.798Z,9.60
2019-05-11T07:02:33.236Z,9.43
2019-05-11T07:05:02.649Z,10.23
2019-05-11T07:07:46.416Z,9.03
2019-05-11T07:10:03.126Z,9.97
2019-05-11T07:12:32.538Z,10.00
2019-05-11T07:15:01.907Z,9.77
2019-05-11T07:17:31.167Z,9.90
2019-05-11T07:22:59.623Z,9.37
2019-05-11T07:25:29.102Z,9.77
2019-05-11T07:27:58.654Z,8.90
2019-05-11T07:30:30.063Z,8.83
2019-05-11T07:33:01.031Z,9.73
2019-05-11T07:35:32.187Z,9.37
2019-05-11T07:38:03.691Z,8.97
2019-05-11T07:40:33.096Z,9.63
2019-05-11T07:43:06.263Z,8.87
2019-05-11T07:45:33.698Z,9.23
2019-05-11T07:48:03.222Z,9.27
2019-05-11T07:50:32.760Z,8.97
2019-05-11T07:53:02.208Z,9.13
2019-05-11T07:55:31.630Z,9.50
2019-05-11T07:58:01.118Z,10.23
2019-05-11T08:00:30.576Z,9.60
2019-05-11T08:03:00.009Z,9.30
2019-05-11T08:05:29.473Z,8.97
2019-05-11T08:07:59.614Z,8.67
2019-05-11T08:10:29.275Z,8.87
2019-05-11T08:12:58.982Z,8.73
2019-05-11T08:15:28.583Z,8.50
2019-05-11T08:17:59.317Z,9.47
2019-05-11T08:20:30.033Z,9.50
2019-05-11T08:22:59.564Z,10.40
2019-05-11T08:25:29.161Z,10.10
2019-05-11T08:27:58.954Z,10.00
2019-05-11T08:30:48.622Z,9.73
2019-05-11T08:33:18.387Z,10.60
2019-05-11T08:35:48.151Z,10.87
2019-05-11T08:38:18.231Z,9.90
2019-05-11T08:40:48.470Z,10.30
2019-05-11T08:43:18.206Z,10.13
2019-05-11T08:45:48.497Z,11.23
2019-05-11T08:48:18.803Z,11.33
2019-05-11T08:50:48.989Z,10.27
2019-05-11T08:53:18.616Z,9.67
2019-05-11T08:55:48.625Z,9.10
2019-05-11T08:58:19.732Z,9.23
2019-05-11T09:00:50.351Z,9.10
2019-05-11T09:03:19.801Z,8.63
2019-05-11T09:05:49.321Z,8.43
2019-05-11T09:08:18.994Z,7.80
2019-05-11T09:10:49.091Z,7.93
2019-05-11T09:13:18.795Z,7.33
2019-05-11T09:15:49.411Z,7.37
2019-05-11T09:18:18.955Z,6.80
2019-05-11T09:23:41.308Z,6.30
2019-05-11T09:26:10.800Z,6.67
2019-05-11T09:28:40.262Z,6.77
2019-05-11T09:31:09.719Z,6.30
2019-05-11T09:33:39.136Z,6.07
2019-05-11T09:36:08.788Z,6.37
2019-05-11T09:38:39.385Z,5.97
2019-05-11T09:41:12.169Z,5.97
2019-05-11T09:43:40.193Z,6.50
2019-05-11T09:49:15.349Z,6.00
2019-05-11T09:54:50.548Z,5.70
2019-05-11T09:57:20.207Z,6.60
2019-05-11T09:59:49.986Z,5.97
2019-05-11T10:05:19.578Z,5.93
2019-05-11T10:07:49.028Z,5.83
2019-05-11T10:10:19.057Z,6.33
2019-05-11T10:12:52.755Z,6.07
2019-05-11T10:15:20.788Z,6.13
2019-05-11T10:17:51.663Z,5.93
2019-05-11T10:20:22.571Z,6.03
2019-05-11T10:22:54.386Z,6.13
2019-05-11T10:25:24.001Z,6.30
2019-05-11T10:27:54.131Z,5.90
2019-05-11T10:30:24.834Z,5.97
2019-05-11T10:32:57.792Z,5.40
2019-05-11T10:35:28.803Z,5.70
2019-05-11T10:37:58.502Z,5.80
2019-05-11T10:40:28.309Z,6.23
2019-05-11T10:42:58.961Z,6.00
2019-05-11T10:45:28.696Z,5.93
2019-05-11T10:48:00.955Z,5.40
2019-05-11T10:50:29.602Z,6.33
2019-05-11T10:52:59.224Z,6.20
2019-05-11T10:55:28.752Z,5.83
2019-05-11T10:57:58.245Z,5.40
2019-05-11T11:03:40.878Z,5.60
2019-05-11T11:06:10.431Z,5.80
2019-05-11T11:08:39.905Z,5.83
2019-05-11T11:11:09.360Z,5.20
2019-05-11T11:13:38.818Z,5.80
2019-05-11T11:16:08.516Z,5.43
2019-05-11T11:18:38.243Z,5.00
2019-05-11T11:21:08.673Z,5.33
2019-05-11T11:23:38.587Z,5.60
2019-05-11T11:26:08.353Z,5.13
2019-05-11T11:28:38.399Z,5.13
2019-05-11T11:31:08.013Z,5.13
2019-05-11T11:33:38.231Z,5.00
2019-05-11T11:36:08.545Z,4.50
2019-05-11T11:38:38.124Z,4.57
2019-05-11T11:41:08.032Z,4.60
2019-05-11T11:43:37.860Z,4.73
2019-05-11T11:46:32.102Z,4.87
2019-05-11T11:49:01.615Z,4.43
2019-05-11T11:54:38.618Z,4.83
2019-05-11T11:57:07.857Z,4.63
2019-05-11T11:59:38.567Z,5.07
2019-05-11T12:02:08.659Z,4.30
2019-05-11T12:04:40.116Z,4.40
2019-05-11T12:07:09.321Z,4.50
2019-05-11T12:09:38.776Z,3.73
2019-05-11T12:14:58.485Z,3.40
2019-05-11T12:17:28.659Z,4.13
2019-05-11T12:19:58.655Z,4.13
2019-05-11T12:22:28.242Z,4.10
2019-05-11T12:24:58.945Z,4.20
2019-05-11T12:27:28.762Z,4.00
2019-05-11T12:29:58.369Z,4.00
2019-05-11T12:32:35.590Z,4.20
2019-05-11T12:35:05.096Z,3.80
2019-05-11T12:37:34.506Z,4.20
2019-05-11T12:40:23.006Z,3.97
2019-05-11T12:42:52.477Z,4.73
2019-05-11T12:45:21.870Z,4.40
2019-05-11T12:47:51.261Z,4.10
2019-05-11T12:53:04.027Z,4.07
2019-05-11T12:55:34.603Z,4.00
2019-05-11T12:58:04.137Z,4.13
2019-05-11T13:00:33.623Z,3.90
2019-05-11T13:03:03.098Z,4.20
2019-05-11T13:05:40.216Z,3.57
2019-05-11T13:08:10.008Z,3.40
2019-05-11T13:10:42.075Z,3.20
2019-05-11T13:13:11.874Z,4.10
2019-05-11T13:15:41.284Z,3.70
2019-05-11T13:18:10.777Z,3.90
2019-05-11T13:20:40.215Z,3.40
2019-05-11T13:23:10.029Z,3.50
2019-05-11T13:25:39.537Z,3.53
2019-05-11T13:28:08.955Z,3.63
2019-05-11T13:30:38.488Z,3.30
2019-05-11T13:33:08.701Z,3.47
2019-05-11T13:35:38.304Z,3.27
2019-05-11T13:38:09.307Z,3.60
2019-05-11T13:40:40.807Z,3.30
2019-05-11T13:43:10.307Z,3.50
2019-05-11T13:45:39.716Z,3.00
2019-05-11T13:51:11.740Z,2.70
2019-05-11T13:53:43.794Z,3.00
2019-05-11T13:56:14.008Z,2.80
2019-05-11T13:58:43.459Z,2.60
2019-05-11T14:01:13.113Z,3.37
2019-05-11T14:03:42.614Z,3.13
2019-05-11T14:06:13.516Z,3.07
2019-05-11T14:08:43.238Z,2.67
2019-05-11T14:11:12.669Z,2.80
2019-05-11T14:13:42.097Z,2.70
2019-05-11T14:16:13.901Z,2.60
2019-05-11T14:18:43.375Z,2.50
2019-05-11T14:21:13.280Z,2.63
2019-05-11T14:23:44.793Z,2.90
2019-05-11T14:26:18.442Z,2.80
2019-05-11T14:28:48.169Z,2.80
2019-05-11T14:31:18.973Z,2.33
2019-05-11T14:33:49.033Z,2.60
2019-05-11T14:36:20.380Z,2.50
2019-05-11T14:38:49.666Z,2.70
2019-05-11T14:41:20.392Z,2.37
2019-05-11T14:43:49.898Z,2.50
2019-05-11T14:46:19.396Z,2.50
2019-05-11T14:48:48.993Z,2.10
2019-05-11T14:51:18.487Z,2.20
2019-05-11T14:56:44.884Z,2.03
2019-05-11T15:05:20.899Z,5.40
2019-05-11T15:10:39.657Z,2.60
2019-05-11T15:13:09.943Z,2.03
2019-05-11T15:15:41.998Z,2.70
2019-05-11T15:18:11.549Z,2.20
2019-05-11T15:20:41.692Z,2.37
2019-05-11T15:23:11.210Z,2.00
2019-05-11T15:28:48.493Z,2.37
2019-05-11T15:31:22.231Z,2.17
2019-05-11T15:33:49.291Z,2.10
2019-05-11T15:36:19.366Z,2.00
2019-05-11T15:38:49.028Z,2.00
2019-05-11T15:41:18.465Z,2.60
2019-05-11T15:43:48.168Z,2.47
2019-05-11T15:46:19.733Z,2.00
2019-05-11T15:48:58.758Z,2.13
2019-05-11T15:51:20.781Z,2.53
2019-05-11T15:53:50.423Z,1.90
2019-05-11T15:59:39.556Z,2.20
2019-05-11T16:02:09.006Z,1.90
2019-05-11T16:04:41.390Z,2.50
2019-05-11T16:10:18.698Z,2.20
2019-05-11T16:12:49.147Z,2.00
2019-05-11T16:15:19.888Z,1.90
2019-05-11T16:17:51.813Z,2.10
2019-05-11T16:20:23.353Z,2.30
2019-05-11T16:22:53.548Z,2.50
2019-05-11T16:25:23.089Z,2.10
2019-05-11T16:27:52.611Z,2.40
2019-05-11T16:30:22.121Z,2.93
2019-05-11T16:32:51.643Z,2.40
2019-05-11T16:35:21.209Z,2.10
2019-05-11T16:37:50.721Z,2.10
2019-05-11T16:40:21.258Z,2.10
2019-05-11T16:42:52.136Z,2.13
2019-05-11T16:45:23.956Z,2.10
2019-05-11T16:47:54.230Z,2.13
2019-05-11T16:50:24.061Z,2.40
2019-05-11T16:52:53.605Z,2.47
2019-05-11T16:55:23.086Z,2.07
2019-05-11T16:57:53.034Z,2.57
2019-05-11T17:00:26.108Z,2.13
2019-05-11T17:02:57.638Z,2.33
2019-05-11T17:05:33.176Z,2.13
2019-05-11T17:11:04.208Z,2.07
2019-05-11T17:13:34.669Z,2.10
2019-05-11T17:16:04.256Z,2.03
2019-05-11T17:18:33.801Z,2.50
2019-05-11T17:21:04.710Z,1.90
2019-05-11T17:23:38.064Z,1.90
2019-05-11T17:26:32.363Z,2.37
2019-05-11T17:29:01.904Z,2.20
2019-05-11T17:31:32.520Z,2.30
2019-05-11T17:34:02.124Z,2.23
2019-05-11T17:36:34.106Z,1.93
2019-05-11T17:39:06.154Z,2.30
2019-05-11T17:41:35.678Z,2.03
2019-05-11T17:44:07.803Z,2.20
2019-05-11T17:46:39.939Z,1.83
2019-05-11T17:49:11.785Z,2.43
2019-05-11T17:51:43.318Z,2.37
2019-05-11T17:54:12.916Z,2.00
2019-05-11T17:56:42.472Z,1.87
2019-05-11T17:59:13.267Z,2.10
2019-05-11T18:01:42.699Z,2.00
2019-05-11T18:04:37.493Z,1.90
2019-05-11T18:07:07.003Z,1.90
2019-05-11T18:09:38.033Z,2.20
2019-05-11T18:12:09.738Z,2.03
2019-05-11T18:14:39.509Z,2.30
2019-05-11T18:17:10.061Z,2.30
2019-05-11T18:19:39.790Z,1.93
2019-05-11T18:22:11.457Z,2.03
2019-05-11T18:24:40.962Z,2.60
2019-05-11T18:27:10.444Z,2.33
2019-05-11T18:29:40.072Z,1.97
2019-05-11T18:32:10.334Z,2.00
2019-05-11T18:34:40.110Z,2.13
2019-05-11T18:37:09.680Z,2.20
2019-05-11T18:39:39.157Z,1.90
2019-05-11T18:42:08.687Z,2.30
2019-05-11T18:44:38.195Z,2.03
2019-05-11T18:47:08.912Z,2.20
2019-05-11T18:49:38.314Z,2.30
2019-05-11T18:52:21.859Z,1.90
2019-05-11T18:54:51.367Z,1.93
2019-05-11T18:57:20.925Z,1.60
2019-05-11T19:02:50.558Z,2.00
2019-05-11T19:05:22.923Z,2.77
2019-05-11T19:07:52.786Z,2.10
2019-05-11T19:10:22.212Z,2.00
2019-05-11T19:12:51.774Z,2.50
2019-05-11T19:15:21.234Z,1.93
2019-05-11T19:20:49.317Z,1.80
2019-05-11T19:23:19.170Z,2.60
2019-05-11T19:25:50.494Z,2.30
2019-05-11T19:28:20.019Z,3.40
2019-05-11T19:30:49.480Z,4.30
2019-05-11T19:33:19.189Z,2.43
2019-05-11T19:35:48.783Z,2.30
2019-05-11T19:38:18.978Z,2.07
2019-05-11T19:40:48.608Z,2.30
2019-05-11T19:43:18.517Z,1.87
2019-05-11T19:45:48.719Z,2.23
2019-05-11T19:48:18.315Z,2.80
2019-05-11T19:51:02.748Z,2.10
2019-05-11T19:53:18.957Z,2.30
2019-05-11T19:55:48.502Z,10.77
2019-05-11T19:58:19.252Z,2.87
2019-05-11T20:00:49.026Z,3.57
2019-05-11T20:03:18.480Z,9.37
2019-05-11T20:05:48.560Z,5.17
2019-05-11T20:08:18.571Z,4.60
2019-05-11T20:10:48.684Z,5.30
2019-05-11T20:13:18.426Z,2.40
2019-05-11T20:15:48.489Z,2.03
2019-05-11T20:18:18.490Z,2.33
2019-05-11T20:20:48.182Z,4.73
2019-05-11T20:23:17.646Z,2.33
2019-05-11T20:25:47.868Z,2.50
2019-05-11T20:28:18.168Z,2.40
2019-05-11T20:30:48.431Z,2.50
2019-05-11T20:33:18.928Z,2.60
2019-05-11T20:35:48.868Z,2.70
2019-05-11T20:41:24.288Z,2.50
2019-05-11T20:43:53.797Z,2.60
2019-05-11T20:46:23.256Z,2.60
2019-05-11T20:48:52.678Z,2.70
2019-05-11T20:51:41.698Z,2.00
2019-05-11T20:54:11.140Z,2.53
2019-05-11T20:56:40.851Z,2.13
2019-05-11T20:59:10.172Z,2.50
2019-05-11T21:01:39.571Z,3.87
2019-05-11T21:04:08.993Z,2.17
2019-05-11T21:06:38.495Z,2.20
2019-05-11T21:09:08.299Z,4.70
2019-05-11T21:11:37.870Z,3.27
2019-05-11T21:14:07.993Z,8.80
2019-05-11T21:16:38.649Z,2.40
2019-05-11T21:19:08.327Z,2.67
2019-05-11T21:21:49.537Z,4.37
2019-05-11T21:24:08.892Z,5.10
2019-05-11T21:26:38.565Z,3.20
2019-05-11T21:29:08.552Z,3.20
2019-05-11T21:31:40.588Z,4.40
2019-05-11T21:34:09.166Z,2.33
2019-05-11T21:36:38.662Z,4.13
2019-05-11T21:39:09.466Z,2.73
2019-05-11T21:41:38.824Z,2.87
2019-05-11T21:44:08.418Z,5.87
2019-05-11T21:46:38.852Z,4.03
2019-05-11T21:49:08.460Z,3.50
2019-05-11T21:51:38.198Z,2.57
2019-05-11T21:54:07.642Z,2.13
2019-05-11T21:56:40.566Z,2.17
2019-05-11T21:59:08.185Z,2.20
2019-05-11T22:01:39.591Z,2.53
2019-05-11T22:04:11.309Z,2.33
2019-05-11T22:06:39.783Z,2.70
2019-05-11T22:09:09.618Z,2.57
2019-05-11T22:11:39.014Z,2.57
2019-05-11T22:14:08.428Z,2.10
2019-05-11T22:16:38.662Z,2.20
2019-05-11T22:19:08.999Z,2.23
2019-05-11T22:21:38.597Z,2.03
2019-05-11T22:24:08.631Z,2.27
2019-05-11T22:26:38.147Z,2.40
2019-05-11T22:29:07.947Z,2.53
2019-05-11T22:31:38.253Z,2.30
2019-05-11T22:34:32.327Z,2.40
2019-05-11T22:37:01.721Z,2.80
2019-05-11T22:39:31.101Z,2.67
2019-05-11T22:42:00.521Z,2.53
2019-05-11T22:44:29.974Z,2.40
2019-05-11T22:46:59.394Z,2.63
2019-05-11T22:49:28.784Z,2.80
2019-05-11T22:51:59.785Z,2.50
2019-05-11T22:54:29.409Z,2.90
2019-05-11T22:56:58.810Z,2.50
2019-05-11T22:59:39.898Z,2.80
2019-05-11T23:02:10.785Z,2.70
2019-05-11T23:04:40.354Z,2.57
2019-05-11T23:07:09.799Z,2.70
2019-05-11T23:09:39.286Z,2.47
2019-05-11T23:12:08.995Z,2.40
2019-05-11T23:14:38.659Z,2.30
2019-05-11T23:17:08.225Z,2.53
2019-05-11T23:19:38.144Z,2.57
2019-05-11T23:22:08.308Z,2.50
2019-05-11T23:24:37.871Z,2.80
2019-05-11T23:27:07.986Z,2.70
2019-05-11T23:29:58.110Z,2.30
2019-05-11T23:32:27.657Z,3.00
2019-05-11T23:34:57.063Z,2.50
2019-05-11T23:37:27.838Z,2.60
2019-05-11T23:39:58.510Z,2.70
2019-05-11T23:42:30.589Z,2.63
2019-05-11T23:44:59.014Z,2.50
2019-05-11T23:47:28.899Z,2.57
2019-05-11T23:49:58.645Z,2.63
2019-05-11T23:52:50.109Z,2.60
2019-05-11T23:55:19.049Z,2.57
2019-05-11T23:57:49.163Z,2.80
